Time;durP1;ratioP1;P1;durP2;ratioP2;P2;SDS_P1;SDS_P2;PMS_P1;PMS_P2;Temp;Humidity;BMP_temperature;BMP_pressure;BME280_temperature;BME280_humidity;BME280_pressure;Samples;Min_cycle;Max_cycle;Signal;HPM_P1;HPM_P2
2023/06/07 00:00:26;;;;;;;4.80;2.60;;;18.90;76.40;;;19.27;52.06;95151.44;5053158;28;20476;-58
2023/06/07 00:02:57;;;;;;;4.50;2.50;;;18.90;76.40;;;19.25;52.25;95145.44;5048927;28;20487;-59
2023/06/07 00:05:24;;;;;;;11.30;2.57;;;18.90;76.70;;;19.22;52.40;95153.00;5053170;28;20471;-60
2023/06/07 00:07:51;;;;;;;4.00;2.73;;;18.80;76.80;;;19.16;51.75;95141.22;5053697;28;20998;-73
2023/06/07 00:10:18;;;;;;;4.03;2.90;;;18.80;76.70;;;19.12;52.17;95146.13;5053483;28;20463;-73
2023/06/07 00:12:46;;;;;;;2.67;2.47;;;18.70;76.80;;;19.10;52.04;95145.47;5047437;28;20439;-72
2023/06/07 00:15:13;;;;;;;6.73;2.30;;;18.70;77.10;;;19.09;52.32;95146.47;5051860;28;20555;-59
2023/06/07 00:17:41;;;;;;;5.57;2.97;;;18.70;77.20;;;19.09;52.20;95149.16;5050191;28;20498;-61
2023/06/07 00:20:11;;;;;;;9.50;2.67;;;18.70;77.30;;;19.06;52.10;95148.72;5051832;28;21009;-72
2023/06/07 00:22:39;;;;;;;4.40;2.80;;;18.70;77.40;;;19.03;52.19;95138.41;5052556;28;20483;-72
2023/06/07 00:25:08;;;;;;;3.23;3.00;;;18.60;77.40;;;19.00;52.56;95139.59;5048411;28;20566;-73
2023/06/07 00:27:35;;;;;;;11.10;3.00;;;18.60;77.50;;;18.98;52.73;95138.97;5052747;28;20805;-60
2023/06/07 00:30:03;;;;;;;5.10;2.57;;;18.60;77.70;;;18.96;52.95;95139.16;5049606;28;20483;-73
2023/06/07 00:32:31;;;;;;;5.90;3.20;;;18.60;77.80;;;18.96;52.51;95133.81;5054022;28;20543;-60
2023/06/07 00:34:58;;;;;;;3.00;2.80;;;18.60;77.80;;;18.96;52.68;95141.81;5050511;28;20475;-60
2023/06/07 00:37:27;;;;;;;15.40;2.70;;;18.50;78.00;;;18.94;52.50;95143.00;5050722;28;20467;-59
2023/06/07 00:39:54;;;;;;;8.23;3.43;;;18.50;77.90;;;18.89;52.91;95148.88;5050501;28;20549;-72
2023/06/07 00:42:22;;;;;;;4.73;2.23;;;18.50;78.20;;;18.88;52.84;95154.41;5053325;28;20487;-59
2023/06/07 00:44:49;;;;;;;6.30;3.00;;;18.50;78.20;;;18.87;52.47;95150.91;5058212;28;20482;-60
2023/06/07 00:47:16;;;;;;;6.93;2.87;;;18.50;78.20;;;18.85;53.31;95152.91;5050581;28;20839;-71
2023/06/07 00:49:44;;;;;;;4.60;2.90;;;18.50;78.30;;;18.86;52.63;95154.59;5058574;28;20479;-59
2023/06/07 00:52:11;;;;;;;6.40;2.73;;;18.50;78.50;;;18.87;52.53;95153.59;5055409;28;20497;-73
2023/06/07 00:54:40;;;;;;;4.63;2.67;;;18.50;78.30;;;18.86;52.86;95156.44;5055591;28;20486;-72
2023/06/07 00:57:08;;;;;;;2.43;2.23;;;18.50;78.20;;;18.85;53.19;95146.78;5050041;28;20510;-58
2023/06/07 00:59:35;;;;;;;4.73;2.80;;;18.40;78.30;;;18.84;52.54;95145.94;5047753;28;20991;-59
2023/06/07 01:02:02;;;;;;;4.30;2.83;;;18.50;78.20;;;18.82;52.89;95150.59;5046906;28;20549;-71
2023/06/07 01:04:30;;;;;;;3.93;2.13;;;18.40;78.10;;;18.79;52.59;95145.63;5050526;28;20467;-60
2023/06/07 01:06:58;;;;;;;9.20;2.67;;;18.40;78.10;;;18.77;52.45;95142.34;5050564;28;20468;-73
2023/06/07 01:09:25;;;;;;;2.30;1.90;;;18.40;78.20;;;18.75;53.05;95147.03;5054071;28;20484;-72
2023/06/07 01:11:54;;;;;;;7.33;2.77;;;18.40;78.10;;;18.73;53.13;95139.22;5047248;28;20456;-60
2023/06/07 01:14:21;;;;;;;5.13;2.77;;;18.30;78.00;;;18.71;52.66;95140.41;5055271;28;20463;-59
2023/06/07 01:16:50;;;;;;;2.70;2.50;;;18.30;78.10;;;18.68;52.82;95138.09;5050067;28;20524;-71
2023/06/07 01:19:21;;;;;;;3.53;2.00;;;18.30;78.00;;;18.64;52.90;95135.81;5047408;28;20479;-58
2023/06/07 01:21:48;;;;;;;3.27;2.90;;;18.30;78.10;;;18.61;52.89;95144.16;5054866;28;20996;-60
2023/06/07 01:24:18;;;;;;;6.47;2.50;;;18.20;78.00;;;18.58;53.02;95139.19;5051679;28;20561;-74
2023/06/07 01:26:45;;;;;;;7.23;2.70;;;18.20;77.90;;;18.53;52.55;95144.25;5051412;28;20483;-60
2023/06/07 01:29:15;;;;;;;8.10;2.70;;;18.20;78.20;;;18.49;53.09;95145.63;5053711;28;20546;-59
2023/06/07 01:31:42;;;;;;;3.83;2.53;;;18.10;78.20;;;18.46;52.80;95135.34;5049670;28;20456;-59
2023/06/07 01:34:10;;;;;;;8.97;2.40;;;18.10;78.30;;;18.42;53.03;95137.53;5051460;28;20486;-59
2023/06/07 01:36:37;;;;;;;3.63;2.37;;;18.00;78.00;;;18.38;52.33;95130.91;5050599;28;20455;-59
2023/06/07 01:39:04;;;;;;;6.33;2.90;;;18.00;77.70;;;18.31;52.25;95132.66;5048580;28;20507;-59
2023/06/07 01:41:33;;;;;;;3.00;2.70;;;18.00;77.70;;;18.26;52.48;95132.38;5052815;28;20526;-73
2023/06/07 01:44:00;;;;;;;5.00;2.50;;;17.90;77.60;;;18.20;52.82;95125.94;5052571;28;20491;-72
2023/06/07 01:46:28;;;;;;;2.40;2.20;;;17.80;77.50;;;18.16;52.37;95121.97;5052134;28;20521;-73
2023/06/07 01:48:55;;;;;;;3.97;2.73;;;17.80;77.80;;;18.13;52.42;95130.31;5048822;28;20476;-74
2023/06/07 01:51:23;;;;;;;3.57;2.60;;;17.80;78.00;;;18.11;52.99;95124.38;5049934;28;20952;-71
2023/06/07 01:53:50;;;;;;;2.53;2.33;;;17.70;78.10;;;18.04;52.98;95123.41;5050242;28;20865;-74
2023/06/07 01:56:26;;;;;;;2.93;2.60;;;17.70;77.90;;;18.02;52.58;95131.59;5050259;28;20470;-72
2023/06/07 01:59:02;;;;;;;8.20;2.90;;;17.60;77.80;;;18.01;52.96;95131.75;5048048;28;20459;-59
2023/06/07 02:01:36;;;;;;;3.30;2.67;;;17.60;77.90;;;17.99;52.35;95131.13;5051388;28;20449;-59
2023/06/07 02:04:04;;;;;;;3.50;2.17;;;17.60;77.90;;;17.97;53.05;95135.78;5045012;28;20860;-72
2023/06/07 02:06:32;;;;;;;2.70;2.53;;;17.60;78.00;;;17.95;52.82;95135.97;5046017;28;20460;-59
2023/06/07 02:09:03;;;;;;;4.00;2.60;;;17.60;78.00;;;17.94;52.87;95133.47;5046903;28;20464;-59
2023/06/07 02:11:30;;;;;;;5.97;2.80;;;17.60;78.00;;;17.95;52.33;95137.81;5055423;28;20444;-72
2023/06/07 02:13:59;;;;;;;2.60;2.13;;;17.60;78.00;;;17.92;52.26;95144.31;5055860;28;20776;-73
2023/06/07 02:16:35;;;;;;;2.70;1.80;;;17.60;77.90;;;17.92;52.74;95137.16;5059808;28;20604;-60
2023/06/07 02:19:04;;;;;;;3.20;2.40;;;17.60;77.80;;;17.88;52.76;95145.66;5053233;28;20568;-59
2023/06/07 02:21:32;;;;;;;4.00;2.90;;;17.50;77.60;;;17.88;52.84;95137.66;5058862;28;20460;-72
2023/06/07 02:23:59;;;;;;;3.90;2.77;;;17.50;77.70;;;17.86;52.92;95137.00;5059111;28;20581;-72
2023/06/07 02:26:27;;;;;;;2.70;2.50;;;17.50;77.80;;;17.86;52.33;95140.50;5059031;28;20500;-71
2023/06/07 02:28:54;;;;;;;8.77;3.37;;;17.50;77.90;;;17.86;52.59;95142.31;5058678;28;20487;-72
2023/06/07 02:31:23;;;;;;;5.80;2.73;;;17.50;77.80;;;17.84;52.75;95134.50;5053622;28;20486;-72
2023/06/07 02:33:50;;;;;;;4.27;2.43;;;17.50;77.70;;;17.83;52.51;95132.88;5052571;28;20486;-72
2023/06/07 02:36:21;;;;;;;2.47;2.27;;;17.50;77.60;;;17.82;52.08;95146.38;5057458;28;20509;-60
2023/06/07 02:38:48;;;;;;;12.40;2.93;;;17.50;77.70;;;17.78;52.26;95151.19;5061045;28;20533;-72
2023/06/07 02:41:16;;;;;;;17.97;3.87;;;17.40;77.50;;;17.76;52.46;95137.25;5057077;28;20554;-71
2023/06/07 02:43:44;;;;;;;3.97;2.60;;;17.40;77.70;;;17.71;52.09;95140.44;5053221;28;20491;-59
2023/06/07 02:46:11;;;;;;;2.80;2.60;;;17.40;77.70;;;17.71;52.73;95150.25;5051529;28;20845;-73
2023/06/07 02:48:41;;;;;;;3.77;2.40;;;17.30;77.80;;;17.70;52.61;95144.09;5052818;28;20562;-63
2023/06/07 02:51:08;;;;;;;4.40;2.40;;;17.30;77.90;;;17.70;52.19;95148.59;5059417;28;20580;-72
2023/06/07 02:53:35;;;;;;;3.73;2.70;;;17.30;77.90;;;17.69;52.46;95152.25;5051541;28;20498;-74
2023/06/07 02:56:03;;;;;;;4.50;2.70;;;17.30;77.90;;;17.68;52.55;95146.13;5055176;28;20986;-60
2023/06/07 02:58:31;;;;;;;4.73;2.33;;;17.30;77.90;;;17.67;52.69;95135.66;5053351;28;20464;-60
2023/06/07 03:00:58;;;;;;;3.43;2.40;;;17.30;78.00;;;17.66;52.86;95141.97;5057954;28;20487;-74
2023/06/07 03:03:25;;;;;;;3.80;3.13;;;17.30;78.10;;;17.65;52.94;95143.81;5052973;28;20518;-72
2023/06/07 03:05:54;;;;;;;7.00;3.00;;;17.30;78.20;;;17.66;52.50;95139.31;5048495;28;20525;-59
2023/06/07 03:08:21;;;;;;;2.70;2.47;;;17.30;78.40;;;17.67;52.47;95138.31;5054836;28;20471;-72
2023/06/07 03:10:48;;;;;;;4.23;2.80;;;17.30;78.30;;;17.69;52.62;95141.59;5049935;28;20558;-72
2023/06/07 03:13:16;;;;;;;3.63;2.70;;;17.30;78.30;;;17.69;52.49;95133.63;5057256;28;20550;-60
2023/06/07 03:15:45;;;;;;;3.13;2.70;;;17.30;78.50;;;17.71;52.90;95136.97;5055125;28;20524;-73
2023/06/07 03:18:15;;;;;;;3.20;2.80;;;17.30;78.70;;;17.74;52.88;95139.28;5058012;28;20475;-60
2023/06/07 03:20:43;;;;;;;8.20;3.30;;;17.30;78.50;;;17.75;53.11;95138.25;5050290;28;20467;-72
2023/06/07 03:23:12;;;;;;;4.07;2.83;;;17.40;78.60;;;17.78;52.60;95140.56;5050874;28;20491;-74
2023/06/07 03:25:39;;;;;;;5.03;2.60;;;17.40;78.60;;;17.80;52.53;95132.38;5052059;28;20561;-60
2023/06/07 03:28:06;;;;;;;2.47;2.27;;;17.40;78.60;;;17.80;52.81;95135.91;5051818;28;20459;-72
2023/06/07 03:30:34;;;;;;;8.20;2.80;;;17.50;78.80;;;17.81;52.61;95131.41;5055194;28;20483;-60
2023/06/07 03:33:02;;;;;;;8.83;2.50;;;17.40;78.70;;;17.81;53.02;95134.88;5054097;28;20913;-69
2023/06/07 03:35:30;;;;;;;3.13;2.80;;;17.40;78.70;;;17.81;52.66;95134.06;5053024;28;21015;-61
2023/06/07 03:37:57;;;;;;;4.90;2.50;;;17.40;78.70;;;17.80;52.98;95138.56;5049574;28;20578;-60
2023/06/07 03:40:26;;;;;;;3.40;2.60;;;17.50;78.80;;;17.81;53.21;95129.56;5046831;28;20582;-73
2023/06/07 03:42:53;;;;;;;5.77;2.37;;;17.40;78.90;;;17.81;53.12;95134.88;5050380;28;20463;-60
2023/06/07 03:45:21;;;;;;;4.93;2.40;;;17.50;79.00;;;17.79;52.76;95130.75;5051068;28;20935;-72
2023/06/07 03:47:48;;;;;;;4.37;2.77;;;17.40;78.90;;;17.77;53.14;95133.59;5053717;28;20448;-61
2023/06/07 03:50:16;;;;;;;8.93;2.90;;;17.40;79.10;;;17.77;52.98;95141.56;5054430;28;21047;-73
2023/06/07 03:52:43;;;;;;;4.53;2.50;;;17.40;79.20;;;17.75;53.11;95132.91;5049904;28;20456;-59
2023/06/07 03:55:10;;;;;;;3.20;2.70;;;17.40;79.50;;;17.74;53.11;95142.75;5052966;28;20614;-60
2023/06/07 03:57:39;;;;;;;2.40;2.30;;;17.40;79.50;;;17.74;53.18;95141.94;5053485;28;20466;-60
2023/06/07 04:00:11;;;;;;;15.53;2.67;;;17.40;79.60;;;17.73;53.17;95134.94;5053902;28;20467;-60
2023/06/07 04:02:38;;;;;;;4.73;2.50;;;17.40;79.80;;;17.73;53.66;95127.78;5050128;28;20792;-59
2023/06/07 04:05:06;;;;;;;4.83;2.60;;;17.40;80.00;;;17.75;53.63;95135.59;5054607;28;20502;-71
2023/06/07 04:07:33;;;;;;;14.30;2.70;;;17.40;80.30;;;17.80;53.90;95138.56;5048134;28;20452;-71
2023/06/07 04:10:01;;;;;;;6.60;2.50;;;17.40;80.10;;;17.82;53.80;95141.03;5054321;28;20563;-71
2023/06/07 04:12:28;;;;;;;22.23;3.00;;;17.50;80.40;;;17.84;53.29;95139.84;5051927;28;20546;-69
2023/06/07 04:14:57;;;;;;;3.10;2.77;;;17.50;80.20;;;17.87;54.07;95139.47;5054951;28;20475;-69
2023/06/07 04:17:24;;;;;;;5.43;2.73;;;17.50;80.40;;;17.92;53.52;95141.63;5051979;28;20474;-63
2023/06/07 04:19:56;;;;;;;7.47;3.20;;;17.50;80.40;;;17.98;53.65;95130.28;5051268;28;20476;-61
2023/06/07 04:22:24;;;;;;;10.93;3.50;;;17.60;80.70;;;18.04;53.78;95139.41;5050195;28;20451;-60
2023/06/07 04:24:51;;;;;;;4.70;2.47;;;17.60;80.50;;;18.10;53.57;95131.50;5053623;28;21074;-70
2023/06/07 04:27:19;;;;;;;4.83;2.93;;;17.70;80.60;;;18.13;53.19;95130.31;5049219;28;20455;-71
2023/06/07 04:29:48;;;;;;;10.90;3.50;;;17.70;80.20;;;18.13;53.94;95135.66;5053539;28;21034;-70
2023/06/07 04:32:19;;;;;;;7.13;2.83;;;17.80;80.50;;;18.16;53.37;95129.97;5053689;28;20512;-61
2023/06/07 04:34:47;;;;;;;7.70;2.20;;;17.80;80.60;;;18.17;53.30;95133.44;5051313;28;20585;-61
2023/06/07 04:37:16;;;;;;;8.17;2.80;;;17.80;80.10;;;18.15;53.58;95146.13;5048871;28;20514;-60
2023/06/07 04:39:48;;;;;;;8.20;3.27;;;17.80;80.00;;;18.13;52.87;95132.16;5050668;28;20483;-71
2023/06/07 04:42:17;;;;;;;7.33;2.60;;;17.80;79.80;;;18.09;53.49;95132.53;5051325;28;20440;-60
2023/06/07 04:44:45;;;;;;;3.50;2.83;;;17.80;80.00;;;18.13;53.18;95137.50;5055018;28;20597;-71
2023/06/07 04:47:12;;;;;;;3.90;2.33;;;17.80;80.00;;;18.14;53.70;95147.97;5046807;28;20817;-59
2023/06/07 04:49:41;;;;;;;5.90;2.70;;;17.80;80.20;;;18.15;53.05;95133.63;5051543;28;20537;-59
2023/06/07 04:52:12;;;;;;;6.50;3.00;;;17.80;79.90;;;18.16;52.95;95132.63;5053953;28;20506;-72
2023/06/07 04:54:39;;;;;;;5.50;3.00;;;17.80;79.90;;;18.17;53.62;95134.28;5049184;28;20482;-61
2023/06/07 04:57:08;;;;;;;13.17;2.73;;;17.80;80.00;;;18.19;53.37;95134.94;5049845;28;20455;-71
2023/06/07 04:59:42;;;;;;;4.80;3.20;;;17.80;80.10;;;18.20;53.13;95136.59;5052252;28;20467;-61
2023/06/07 05:02:10;;;;;;;4.53;2.40;;;17.90;80.30;;;18.24;53.01;95142.38;5050305;28;20774;-63
2023/06/07 05:04:38;;;;;;;6.50;3.00;;;17.90;80.20;;;18.27;53.52;95139.34;5048618;28;20496;-71
2023/06/07 05:07:07;;;;;;;2.83;2.57;;;17.90;80.40;;;18.33;53.55;95145.81;5052708;28;20478;-72
2023/06/07 05:09:35;;;;;;;2.60;2.40;;;17.90;80.30;;;18.36;52.82;95138.28;5051466;28;20472;-59
2023/06/07 05:12:03;;;;;;;6.30;3.30;;;18.00;80.30;;;18.44;53.25;95150.69;5049004;28;20457;-71
2023/06/07 05:14:30;;;;;;;10.90;3.50;;;18.00;80.30;;;18.49;53.04;95144.81;5050263;28;20536;-60
2023/06/07 05:16:59;;;;;;;5.57;2.73;;;18.10;80.40;;;18.55;53.55;95144.91;5050424;28;20454;-59
2023/06/07 05:19:27;;;;;;;10.20;2.60;;;18.20;80.60;;;18.63;53.19;95147.47;5052664;28;20462;-60
2023/06/07 05:21:54;;;;;;;5.20;2.83;;;18.20;80.40;;;18.69;53.44;95150.44;5049552;28;20527;-60
2023/06/07 05:24:23;;;;;;;7.07;2.67;;;18.30;80.40;;;18.76;52.94;95143.34;5050644;28;20495;-71
2023/06/07 05:26:50;;;;;;;14.83;3.03;;;18.40;80.50;;;18.85;53.52;95144.09;5052356;28;20539;-72
2023/06/07 05:29:17;;;;;;;12.13;3.57;;;18.40;80.70;;;18.94;52.74;95143.81;5049309;28;20472;-72
2023/06/07 05:31:45;;;;;;;4.87;3.00;;;18.50;80.50;;;19.03;52.73;95143.75;5052712;28;20455;-59
2023/06/07 05:34:12;;;;;;;4.80;3.40;;;18.60;80.60;;;19.10;52.91;95144.63;5051889;28;20478;-73
2023/06/07 05:36:39;;;;;;;5.53;3.03;;;18.70;80.50;;;19.14;52.88;95146.75;5050363;28;20528;-72
2023/06/07 05:39:07;;;;;;;12.70;3.37;;;18.70;80.20;;;19.20;52.69;95136.38;5052214;28;20479;-72
2023/06/07 05:41:37;;;;;;;6.30;3.10;;;18.80;80.40;;;19.28;52.80;95144.25;5050658;28;20883;-71
2023/06/07 05:44:05;;;;;;;12.50;3.77;;;18.80;80.40;;;19.34;52.35;95140.84;5056016;28;20590;-69
2023/06/07 05:46:32;;;;;;;21.17;2.87;;;18.90;80.10;;;19.40;52.84;95144.59;5056263;28;20455;-71
2023/06/07 05:49:00;;;;;;;7.87;3.67;;;18.90;80.30;;;19.48;52.34;95136.47;5059952;28;20482;-72
2023/06/07 05:51:28;;;;;;;4.03;3.57;;;19.00;80.20;;;19.58;52.09;95137.00;5063996;28;20970;-72
2023/06/07 05:53:55;;;;;;;12.00;2.80;;;19.10;80.10;;;19.65;52.45;95135.22;5056085;28;20958;-60
2023/06/07 05:56:23;;;;;;;5.97;3.00;;;19.20;80.30;;;19.72;52.39;95137.97;5056605;28;20462;-72
2023/06/07 05:58:52;;;;;;;4.23;3.20;;;19.30;80.30;;;19.81;52.22;95136.00;5056238;28;20480;-71
2023/06/07 06:01:19;;;;;;;4.43;3.03;;;19.30;80.20;;;19.88;51.96;95135.06;5060638;28;20566;-72
2023/06/07 06:03:47;;;;;;;8.97;2.80;;;19.40;79.70;;;19.96;51.62;95134.09;5058109;28;20491;-72
2023/06/07 06:06:15;;;;;;;3.00;2.37;;;19.50;79.50;;;20.03;51.57;95135.00;5057351;28;20458;-71
2023/06/07 06:08:42;;;;;;;16.80;3.07;;;19.50;79.20;;;20.11;51.84;95133.19;5056811;28;21060;-60
2023/06/07 06:11:12;;;;;;;9.73;3.50;;;19.60;79.40;;;20.22;51.84;95138.03;5058208;28;20440;-71
2023/06/07 06:13:39;;;;;;;5.70;3.10;;;19.70;79.70;;;20.31;51.81;95130.69;5053068;28;20471;-59
2023/06/07 06:16:08;;;;;;;6.57;2.90;;;19.80;79.60;;;20.39;51.72;95138.56;5055068;28;20455;-62
2023/06/07 06:18:35;;;;;;;6.70;3.63;;;19.90;79.70;;;20.49;51.71;95132.88;5056899;28;20463;-61
2023/06/07 06:21:03;;;;;;;3.40;3.03;;;20.00;79.80;;;20.53;51.33;95151.00;5053695;28;20597;-60
2023/06/07 06:23:30;;;;;;;7.47;3.13;;;20.10;79.30;;;20.56;51.51;95133.75;5060918;28;20549;-60
2023/06/07 06:25:57;;;;;;;14.83;4.10;;;20.10;78.90;;;20.62;51.17;95137.47;5058932;28;20517;-60
2023/06/07 06:28:25;;;;;;;8.63;2.80;;;20.10;78.80;;;20.70;51.09;95140.06;5067622;28;20506;-75
2023/06/07 06:30:52;;;;;;;6.53;3.10;;;20.20;78.80;;;20.76;50.75;95140.09;5058448;28;20525;-72
2023/06/07 06:33:21;;;;;;;4.60;3.17;;;20.30;78.40;;;20.80;50.66;95134.34;5053829;28;20446;-60
2023/06/07 06:35:48;;;;;;;13.60;3.13;;;20.30;78.00;;;20.82;50.59;95137.63;5056055;28;20462;-60
2023/06/07 06:38:15;;;;;;;4.00;3.10;;;20.40;78.10;;;20.87;50.79;95140.56;5059882;28;20530;-59
2023/06/07 06:40:44;;;;;;;4.77;2.90;;;20.40;78.00;;;20.89;50.55;95138.50;5053204;28;20471;-62
2023/06/07 06:43:12;;;;;;;3.23;2.93;;;20.40;77.70;;;20.93;50.46;95145.94;5058627;28;20982;-60
2023/06/07 06:45:40;;;;;;;7.43;3.20;;;20.50;77.90;;;21.02;50.56;95138.59;5060022;28;20545;-71
2023/06/07 06:48:07;;;;;;;5.50;3.23;;;20.50;78.00;;;21.09;50.23;95139.44;5056782;28;20456;-60
2023/06/07 06:50:36;;;;;;;7.70;3.20;;;20.60;77.70;;;21.14;50.30;95136.97;5055770;28;20467;-60
2023/06/07 06:53:03;;;;;;;4.67;2.80;;;20.70;77.70;;;21.22;50.12;95143.19;5056411;28;20448;-60
2023/06/07 06:55:31;;;;;;;7.20;3.67;;;20.70;77.40;;;21.26;50.02;95137.25;5058118;28;20471;-72
2023/06/07 06:57:58;;;;;;;41.70;3.70;;;20.80;77.40;;;21.32;49.97;95138.31;5055820;28;20484;-61
2023/06/07 07:00:26;;;;;;;7.63;3.70;;;20.80;77.40;;;21.41;50.01;95133.56;5058060;28;20467;-61
2023/06/07 07:02:53;;;;;;;10.17;3.70;;;20.90;77.40;;;21.52;50.08;95132.19;5053220;28;20471;-72
2023/06/07 07:05:21;;;;;;;5.43;3.80;;;21.00;77.30;;;21.64;49.72;95138.63;5050515;28;20503;-72
2023/06/07 07:07:49;;;;;;;4.97;3.70;;;21.10;77.40;;;21.75;49.61;95142.56;5052839;28;20459;-60
2023/06/07 07:10:18;;;;;;;9.57;3.03;;;21.20;77.20;;;21.88;49.80;95131.06;5057291;28;20468;-60
2023/06/07 07:12:45;;;;;;;9.03;2.97;;;21.40;77.40;;;22.01;49.18;95133.75;5053893;28;20452;-59
2023/06/07 07:15:13;;;;;;;5.03;3.20;;;21.50;76.80;;;22.10;49.58;95135.19;5053369;28;20467;-60
2023/06/07 07:17:46;;;;;;;12.10;2.90;;;21.60;76.70;;;22.20;49.34;95132.13;5054580;28;20505;-60
2023/06/07 07:20:13;;;;;;;12.70;4.20;;;21.70;76.50;;;22.25;49.19;95143.06;5056048;28;20554;-71
2023/06/07 07:22:41;;;;;;;2.87;2.67;;;21.80;76.30;;;22.29;48.90;95138.09;5052307;28;20530;-59
2023/06/07 07:25:10;;;;;;;15.70;3.40;;;21.80;76.10;;;22.32;48.83;95137.72;5057548;28;20501;-59
2023/06/07 07:27:38;;;;;;;16.13;2.90;;;21.90;76.20;;;22.41;49.06;95128.44;5052096;28;20452;-60
2023/06/07 07:30:09;;;;;;;6.57;3.77;;;21.90;76.70;;;22.52;49.44;95133.16;5055499;28;20551;-62
2023/06/07 07:32:36;;;;;;;7.00;3.10;;;22.00;76.60;;;22.60;49.17;95129.44;5052108;28;20581;-61
2023/06/07 07:35:04;;;;;;;4.83;2.60;;;22.10;76.00;;;22.70;48.65;95129.03;5049462;28;20562;-70
2023/06/07 07:37:32;;;;;;;8.53;4.00;;;22.20;76.50;;;22.83;48.23;95128.16;5051773;28;20466;-61
2023/06/07 07:39:59;;;;;;;6.97;3.27;;;22.30;76.00;;;22.91;48.45;95131.47;5050392;28;20484;-70
2023/06/07 07:42:28;;;;;;;10.63;4.00;;;22.40;75.90;;;23.00;48.18;95131.22;5051798;28;20458;-61
2023/06/07 07:44:55;;;;;;;6.73;3.13;;;22.50;75.90;;;23.02;48.52;95131.81;5054306;28;20606;-71
2023/06/07 07:47:23;;;;;;;8.90;4.87;;;22.50;75.40;;;23.05;48.01;95123.34;5047610;28;20551;-61
2023/06/07 07:49:51;;;;;;;9.63;3.60;;;22.50;75.70;;;23.05;48.59;95134.94;5055284;28;20467;-62
2023/06/07 07:52:19;;;;;;;5.00;3.80;;;22.50;75.60;;;23.09;47.77;95127.31;5048213;28;20448;-71
2023/06/07 07:54:47;;;;;;;5.77;3.37;;;22.50;75.20;;;23.12;48.33;95132.25;5050796;28;20517;-62
2023/06/07 07:57:14;;;;;;;5.57;3.70;;;22.60;75.40;;;23.19;47.77;95132.22;5055875;28;20849;-59
2023/06/07 07:59:43;;;;;;;6.93;3.80;;;22.70;75.20;;;23.25;47.94;95121.47;5049058;28;20471;-60
2023/06/07 08:02:11;;;;;;;12.73;3.90;;;22.70;75.20;;;23.32;48.14;95131.34;5053709;28;20459;-61
2023/06/07 08:04:38;;;;;;;6.00;3.50;;;22.80;75.00;;;23.39;47.83;95132.97;5049621;28;20673;-62
2023/06/07 08:07:06;;;;;;;8.57;4.50;;;22.80;75.40;;;23.52;47.54;95132.09;5055113;28;20447;-70
2023/06/07 08:09:33;;;;;;;6.93;4.53;;;22.90;74.90;;;23.59;47.47;95127.50;5053619;28;20491;-61
2023/06/07 08:12:00;;;;;;;22.67;3.07;;;23.00;74.80;;;23.67;47.06;95125.59;5059328;28;20458;-61
2023/06/07 08:14:27;;;;;;;6.80;3.60;;;23.10;74.70;;;23.76;47.00;95125.13;5050974;28;21019;-74
2023/06/07 08:16:56;;;;;;;15.40;7.30;;;23.20;74.30;;;23.87;47.55;95131.69;5059884;28;20486;-70
2023/06/07 08:19:24;;;;;;;9.70;4.00;;;23.30;74.30;;;24.02;47.46;95128.72;5059387;28;20472;-60
2023/06/07 08:21:51;;;;;;;5.23;3.70;;;23.40;74.40;;;24.19;47.24;95126.31;5056349;28;20451;-61
2023/06/07 08:24:19;;;;;;;6.07;3.40;;;23.60;74.30;;;24.36;47.00;95134.66;5055184;28;20829;-72
2023/06/07 08:26:48;;;;;;;8.30;3.80;;;23.80;74.10;;;24.53;46.73;95124.16;5054905;28;20447;-60
2023/06/07 08:29:15;;;;;;;4.17;3.43;;;23.90;73.70;;;24.67;46.19;95123.03;5054484;28;21022;-70
2023/06/07 08:31:43;;;;;;;6.97;3.30;;;24.10;73.60;;;24.84;46.82;95133.22;5051066;28;20528;-72
2023/06/07 08:34:11;;;;;;;12.00;4.80;;;24.30;73.70;;;24.99;45.82;95132.88;5054167;28;20471;-61
2023/06/07 08:36:39;;;;;;;8.00;3.90;;;24.40;72.90;;;25.10;45.60;95125.88;5052777;28;20459;-70
2023/06/07 08:39:07;;;;;;;7.37;3.87;;;24.50;72.80;;;25.22;45.67;95134.88;5053410;28;20475;-72
2023/06/07 08:41:35;;;;;;;4.40;3.47;;;24.60;72.40;;;25.30;45.60;95133.78;5055844;28;20505;-71
2023/06/07 08:44:02;;;;;;;7.67;4.17;;;24.70;71.60;;;25.37;44.88;95137.22;5048745;28;21200;-71
2023/06/07 08:46:31;;;;;;;9.33;3.87;;;24.80;71.70;;;25.43;44.64;95135.50;5054435;28;20833;-61
2023/06/07 08:48:59;;;;;;;22.80;4.97;;;24.90;71.30;;;25.44;44.49;95134.44;5049983;28;20486;-60
2023/06/07 08:51:29;;;;;;;9.53;4.00;;;24.90;70.90;;;25.49;45.03;95135.41;5058411;28;20449;-60
2023/06/07 08:53:57;;;;;;;18.97;5.20;;;24.90;71.20;;;25.60;44.97;95131.13;5050100;28;20557;-60
2023/06/07 08:56:25;;;;;;;73.60;12.13;;;25.00;71.20;;;25.71;44.94;95122.25;5051838;28;20451;-70
2023/06/07 08:58:52;;;;;;;7.33;3.77;;;25.10;71.10;;;25.84;44.57;95125.81;5051306;28;20489;-70
2023/06/07 09:01:20;;;;;;;4.73;3.47;;;25.20;70.50;;;25.90;44.35;95127.59;5053349;28;20829;-65
2023/06/07 09:03:51;;;;;;;27.77;6.17;;;25.30;69.80;;;25.98;44.53;95130.03;5051485;28;20888;-61
2023/06/07 09:06:19;;;;;;;17.47;4.00;;;25.40;70.30;;;26.06;43.80;95121.59;5053758;28;20979;-71
2023/06/07 09:08:48;;;;;;;11.00;4.10;;;25.50;69.70;;;26.10;44.05;95133.56;5053606;28;20474;-70
2023/06/07 09:11:16;;;;;;;18.20;4.83;;;25.50;69.30;;;26.17;43.85;95129.94;5051279;28;20450;-72
2023/06/07 09:13:43;;;;;;;10.07;3.30;;;25.60;69.30;;;26.24;43.74;95122.56;5051034;28;20548;-71
2023/06/07 09:16:11;;;;;;;5.50;3.37;;;25.70;69.30;;;26.23;43.59;95119.06;5050203;28;20451;-72
2023/06/07 09:18:43;;;;;;;22.50;4.00;;;25.70;68.90;;;26.26;43.64;95115.06;5051937;28;20925;-70
2023/06/07 09:21:20;;;;;;;7.50;3.40;;;25.70;69.30;;;26.25;43.86;95121.50;5048418;28;20513;-72
2023/06/07 09:23:49;;;;;;;5.73;3.00;;;25.70;69.10;;;26.22;43.33;95121.97;5047420;28;20505;-61
2023/06/07 09:26:17;;;;;;;3.60;3.33;;;25.70;68.70;;;26.17;43.11;95119.97;5053523;28;20483;-71
2023/06/07 09:28:46;;;;;;;6.13;3.40;;;25.60;68.30;;;26.10;43.54;95113.84;5052931;28;20467;-60
2023/06/07 09:31:13;;;;;;;3.73;3.33;;;25.60;68.20;;;26.03;43.62;95111.28;5052107;28;20458;-61
2023/06/07 09:33:41;;;;;;;10.17;3.93;;;25.60;68.40;;;25.99;43.68;95114.66;5051016;28;20597;-61
2023/06/07 09:36:10;;;;;;;10.43;4.53;;;25.50;68.60;;;25.95;43.32;95107.00;5053090;28;20450;-61
2023/06/07 09:38:38;;;;;;;11.23;4.23;;;25.50;68.40;;;26.02;43.71;95106.91;5048236;28;20486;-71
2023/06/07 09:41:07;;;;;;;10.90;4.00;;;25.50;69.00;;;26.03;44.24;95107.75;5053060;28;20465;-61
2023/06/07 09:43:46;;;;;;;6.97;3.90;;;25.50;69.00;;;26.08;44.11;95111.38;5051027;28;20458;-60
2023/06/07 09:46:13;;;;;;;10.07;4.10;;;25.50;69.30;;;26.13;43.84;95113.38;5054408;28;20593;-71
2023/06/07 09:48:51;;;;;;;9.97;3.47;;;25.60;69.10;;;26.19;43.18;95108.97;5048463;28;20533;-61
2023/06/07 09:51:19;;;;;;;20.07;3.77;;;25.60;68.20;;;26.22;43.49;95109.31;5048925;28;20450;-71
2023/06/07 09:53:52;;;;;;;14.23;3.47;;;25.60;68.50;;;26.26;43.07;95101.59;5050469;28;20471;-60
2023/06/07 09:56:21;;;;;;;22.83;3.97;;;25.70;67.70;;;26.28;43.20;95104.88;5052637;28;20498;-60
2023/06/07 09:58:51;;;;;;;9.60;3.97;;;25.70;68.30;;;26.29;43.51;95106.53;5052891;28;20470;-70
2023/06/07 10:01:33;;;;;;;11.23;3.30;;;25.70;68.20;;;26.33;43.22;95107.69;5050122;28;20452;-72
2023/06/07 10:04:02;;;;;;;12.40;3.43;;;25.70;68.10;;;26.34;43.15;95103.94;5052110;28;21007;-61
2023/06/07 10:06:32;;;;;;;17.10;5.13;;;25.80;67.60;;;26.37;43.18;95103.47;5047777;28;20582;-60
2023/06/07 10:09:02;;;;;;;11.10;3.73;;;25.80;67.20;;;26.39;43.22;95098.66;5051888;28;20473;-61
2023/06/07 10:11:31;;;;;;;10.30;3.90;;;25.80;67.40;;;26.42;42.54;95094.69;5050675;28;20435;-60
2023/06/07 10:14:00;;;;;;;9.90;3.37;;;25.80;67.50;;;26.37;42.42;95087.28;5049908;28;20511;-69
2023/06/07 10:16:30;;;;;;;5.63;3.20;;;25.80;65.80;;;26.30;41.99;95094.66;5047728;28;20443;-62
2023/06/07 10:18:58;;;;;;;9.53;3.70;;;25.80;65.80;;;26.21;42.59;95094.19;5053077;28;20484;-62
2023/06/07 10:21:26;;;;;;;18.83;3.60;;;25.70;65.70;;;26.21;42.59;95093.34;5052297;28;20446;-62